Time;durP1;ratioP1;P1;durP2;ratioP2;P2;SDS_P1;SDS_P2;PMS_P1;PMS_P2;Temp;Humidity;BMP_temperature;BMP_pressure;BME280_temperature;BME280_humidity;BME280_pressure;Samples;Min_cycle;Max_cycle;Signal;HPM_P1;HPM_P2
2021/10/17 00:01:09;;;;;;;39.27;28.77;;;3.80;99.90;;;;;;5087708;28;20465;-68
2021/10/17 00:03:36;;;;;;;31.23;28.33;;;3.80;99.90;;;;;;5095778;28;20884;-68
2021/10/17 00:06:03;;;;;;;30.83;27.70;;;3.70;99.90;;;;;;5092799;28;21061;-68
2021/10/17 00:08:30;;;;;;;28.67;25.93;;;3.60;99.90;;;;;;5090625;28;20462;-68
2021/10/17 00:10:57;;;;;;;39.93;28.63;;;3.50;99.90;;;;;;5092709;28;20465;-68
2021/10/17 00:13:24;;;;;;;31.10;27.90;;;3.50;99.90;;;;;;5092551;28;20559;-68
2021/10/17 00:15:52;;;;;;;36.50;28.40;;;3.40;99.90;;;;;;5083590;28;20996;-68
2021/10/17 00:18:19;;;;;;;30.27;27.23;;;3.30;99.90;;;;;;5095571;28;20816;-68
2021/10/17 00:20:47;;;;;;;37.93;27.90;;;3.20;99.90;;;;;;5096350;28;20462;-68
2021/10/17 00:23:14;;;;;;;28.87;26.23;;;3.20;99.90;;;;;;5093647;28;20505;-68
2021/10/17 00:25:41;;;;;;;29.20;26.37;;;3.10;99.90;;;;;;5095533;28;20469;-68
2021/10/17 00:28:08;;;;;;;32.73;27.67;;;3.00;99.90;;;;;;5092268;28;20468;-68
2021/10/17 00:30:34;;;;;;;28.60;25.90;;;3.00;99.90;;;;;;5089959;28;21083;-68
2021/10/17 00:33:03;;;;;;;32.33;29.23;;;3.00;99.90;;;;;;5086110;28;20458;-68
2021/10/17 00:35:31;;;;;;;38.33;29.00;;;2.90;99.90;;;;;;5084246;28;20549;-68
2021/10/17 00:37:58;;;;;;;33.27;27.43;;;3.00;99.90;;;;;;5095981;28;20458;-68
2021/10/17 00:40:25;;;;;;;39.63;28.93;;;3.00;99.90;;;;;;5097637;28;20468;-68
2021/10/17 00:42:52;;;;;;;33.83;29.07;;;3.10;99.90;;;;;;5094277;28;20457;-68
2021/10/17 00:45:26;;;;;;;40.30;29.77;;;3.10;99.90;;;;;;5096794;28;20456;-67
2021/10/17 00:47:54;;;;;;;31.60;28.60;;;3.10;99.90;;;;;;5093682;28;20453;-68
2021/10/17 00:50:22;;;;;;;30.93;27.60;;;3.00;99.90;;;;;;5090583;28;21207;-68
2021/10/17 00:52:49;;;;;;;30.60;27.50;;;3.00;99.90;;;;;;5092186;28;20489;-68
2021/10/17 00:55:17;;;;;;;32.27;29.10;;;3.00;99.90;;;;;;5091364;28;20457;-68
2021/10/17 00:57:46;;;;;;;35.07;30.70;;;3.00;99.90;;;;;;5089974;28;20864;-68
2021/10/17 01:00:14;;;;;;;52.17;29.87;;;3.00;99.90;;;;;;5084934;28;20461;-68
2021/10/17 01:02:41;;;;;;;32.33;29.67;;;3.00;99.90;;;;;;5087162;28;20529;-68
2021/10/17 01:05:12;;;;;;;30.47;28.00;;;2.90;99.90;;;;;;5097081;28;20471;-68
2021/10/17 01:07:41;;;;;;;31.27;28.00;;;2.90;99.90;;;;;;5090637;28;20457;-68
2021/10/17 01:10:09;;;;;;;31.80;28.50;;;2.90;99.90;;;;;;5092875;28;20469;-68
2021/10/17 01:12:36;;;;;;;31.90;28.97;;;2.90;99.90;;;;;;5092523;28;20496;-68
2021/10/17 01:15:04;;;;;;;30.13;27.53;;;2.80;99.90;;;;;;5089665;28;20581;-68
2021/10/17 01:17:31;;;;;;;28.60;25.93;;;2.80;99.90;;;;;;5082462;28;20490;-68
2021/10/17 01:19:59;;;;;;;29.33;26.80;;;2.70;99.90;;;;;;5096938;28;20469;-68
2021/10/17 01:22:27;;;;;;;31.90;27.93;;;2.60;99.90;;;;;;5087537;28;20854;-67
2021/10/17 01:24:54;;;;;;;31.00;28.00;;;2.50;99.90;;;;;;5099785;28;20461;-68
2021/10/17 01:27:21;;;;;;;39.53;28.90;;;2.50;99.90;;;;;;5093223;28;20817;-67
2021/10/17 01:29:48;;;;;;;32.20;28.97;;;2.50;99.90;;;;;;5092299;28;20952;-68
2021/10/17 01:32:16;;;;;;;38.00;28.07;;;2.50;99.90;;;;;;5084348;28;20454;-68
2021/10/17 01:34:44;;;;;;;30.20;27.20;;;2.40;99.90;;;;;;5099518;28;20829;-68
2021/10/17 01:37:12;;;;;;;32.57;28.30;;;2.40;99.90;;;;;;5099311;28;20888;-68
2021/10/17 01:39:39;;;;;;;30.90;28.13;;;2.30;99.90;;;;;;5095485;28;20467;-68
2021/10/17 01:42:06;;;;;;;31.47;28.17;;;2.30;99.90;;;;;;5093228;28;20474;-68
2021/10/17 01:44:36;;;;;;;30.40;27.40;;;2.20;99.90;;;;;;5091915;28;20472;-68
2021/10/17 01:47:06;;;;;;;29.90;27.10;;;2.20;99.90;;;;;;5083740;28;20485;-68
2021/10/17 01:49:33;;;;;;;30.40;27.60;;;2.20;99.90;;;;;;5096599;28;20473;-67
2021/10/17 01:52:00;;;;;;;30.33;27.50;;;2.20;99.90;;;;;;5099440;28;20492;-68
2021/10/17 01:54:28;;;;;;;30.97;27.97;;;2.20;99.90;;;;;;5092589;28;20497;-67
2021/10/17 01:56:55;;;;;;;31.77;28.57;;;2.20;99.90;;;;;;5094985;28;20485;-68
2021/10/17 01:59:22;;;;;;;31.80;26.90;;;2.20;99.90;;;;;;5091145;28;20474;-68
2021/10/17 02:01:49;;;;;;;30.40;27.90;;;2.20;99.90;;;;;;5085503;28;20466;-67
2021/10/17 02:04:15;;;;;;;30.40;27.47;;;2.20;99.90;;;;;;5094661;28;20465;-68
2021/10/17 02:06:42;;;;;;;32.87;29.70;;;2.10;99.90;;;;;;5095162;28;20453;-68
2021/10/17 02:09:09;;;;;;;34.20;30.50;;;2.10;99.90;;;;;;5095058;28;20510;-68
2021/10/17 02:11:37;;;;;;;30.57;27.33;;;2.00;99.90;;;;;;5095047;28;20457;-68
2021/10/17 02:14:05;;;;;;;30.10;27.30;;;2.00;99.90;;;;;;5090465;28;20464;-68
2021/10/17 02:16:32;;;;;;;27.67;25.50;;;2.00;99.90;;;;;;5093994;28;20480;-68
2021/10/17 02:18:59;;;;;;;29.53;27.20;;;2.00;99.90;;;;;;5092101;28;20468;-68
2021/10/17 02:21:26;;;;;;;31.37;27.90;;;2.00;99.90;;;;;;5091986;28;20465;-68
2021/10/17 02:23:53;;;;;;;38.43;28.00;;;2.00;99.90;;;;;;5087617;28;20491;-68
2021/10/17 02:26:19;;;;;;;31.87;28.87;;;1.90;99.90;;;;;;5091043;28;20468;-68
2021/10/17 02:28:47;;;;;;;29.97;27.50;;;1.90;99.90;;;;;;5090938;28;20465;-69
2021/10/17 02:31:15;;;;;;;28.17;25.77;;;1.80;99.90;;;;;;5085136;28;20465;-68
2021/10/17 02:33:42;;;;;;;31.20;28.30;;;1.80;99.90;;;;;;5097057;28;20500;-68
2021/10/17 02:36:09;;;;;;;29.80;27.10;;;1.80;99.90;;;;;;5090944;28;20549;-68
2021/10/17 02:38:36;;;;;;;31.83;28.73;;;1.80;99.90;;;;;;5088593;28;20990;-68
2021/10/17 02:41:03;;;;;;;31.27;28.60;;;1.70;99.90;;;;;;5097298;28;20465;-68
2021/10/17 02:43:30;;;;;;;28.63;26.43;;;1.80;99.90;;;;;;5090889;28;20522;-68
2021/10/17 02:45:59;;;;;;;28.43;26.17;;;1.80;99.90;;;;;;5090482;28;21310;-68
2021/10/17 02:48:25;;;;;;;29.67;26.70;;;1.80;99.90;;;;;;5093861;28;20465;-68
2021/10/17 02:50:52;;;;;;;30.60;27.77;;;1.70;99.90;;;;;;5092270;28;20471;-68
2021/10/17 02:53:19;;;;;;;31.43;27.80;;;1.70;99.90;;;;;;5091938;28;20489;-68
2021/10/17 02:55:46;;;;;;;29.63;27.33;;;1.70;99.90;;;;;;5097493;28;20465;-68
2021/10/17 02:58:13;;;;;;;37.53;27.50;;;1.70;99.90;;;;;;5084419;28;20494;-68
2021/10/17 03:00:40;;;;;;;30.90;27.80;;;1.80;99.90;;;;;;5091749;28;20469;-68
2021/10/17 03:03:08;;;;;;;29.83;27.03;;;1.70;99.90;;;;;;5087848;28;20465;-68
2021/10/17 03:05:36;;;;;;;29.57;26.77;;;1.70;99.90;;;;;;5095221;28;20476;-67
2021/10/17 03:08:03;;;;;;;29.87;27.07;;;1.80;99.90;;;;;;5096470;28;20518;-68
2021/10/17 03:10:30;;;;;;;31.03;28.17;;;1.80;99.90;;;;;;5096603;28;20475;-68
2021/10/17 03:12:57;;;;;;;30.47;27.27;;;1.80;99.90;;;;;;5094885;28;20574;-68
2021/10/17 03:15:23;;;;;;;29.00;26.37;;;1.70;99.90;;;;;;5096631;28;20473;-69
2021/10/17 03:17:50;;;;;;;37.27;27.50;;;1.70;99.90;;;;;;5092638;28;20926;-67
2021/10/17 03:20:19;;;;;;;31.70;28.70;;;1.80;99.90;;;;;;5097041;28;20466;-67
2021/10/17 03:22:46;;;;;;;32.03;28.50;;;1.70;99.90;;;;;;5095036;28;20629;-68
2021/10/17 03:25:12;;;;;;;31.33;27.90;;;1.70;99.90;;;;;;5099270;28;21180;-68
2021/10/17 03:27:39;;;;;;;29.13;26.20;;;1.70;99.90;;;;;;5090160;28;20468;-68
2021/10/17 03:30:08;;;;;;;34.27;26.73;;;1.60;99.90;;;;;;5094358;28;20469;-68
2021/10/17 03:32:35;;;;;;;30.93;27.33;;;1.60;99.90;;;;;;5090918;28;20868;-67
2021/10/17 03:35:03;;;;;;;30.17;27.47;;;1.80;99.90;;;;;;5099245;28;20487;-68
2021/10/17 03:37:31;;;;;;;31.13;28.23;;;1.80;99.90;;;;;;5101757;28;20492;-68
2021/10/17 03:39:59;;;;;;;29.27;26.43;;;1.70;99.90;;;;;;5099786;28;20467;-68
2021/10/17 03:42:26;;;;;;;31.00;28.10;;;1.60;99.90;;;;;;5093949;28;20834;-68
2021/10/17 03:44:53;;;;;;;29.43;26.90;;;1.60;99.90;;;;;;5094718;28;20949;-68
2021/10/17 03:47:20;;;;;;;31.07;28.17;;;1.60;99.90;;;;;;5083778;28;20538;-68
2021/10/17 03:49:47;;;;;;;29.33;26.47;;;1.70;99.90;;;;;;5093232;28;20549;-69
2021/10/17 03:52:14;;;;;;;30.27;27.40;;;1.60;99.90;;;;;;5094656;28;20481;-68
2021/10/17 03:54:44;;;;;;;30.73;27.63;;;1.50;99.90;;;;;;5089533;28;20574;-68
2021/10/17 03:57:11;;;;;;;38.00;27.63;;;1.40;99.90;;;;;;5093419;28;20517;-68
2021/10/17 03:59:38;;;;;;;30.30;27.20;;;1.40;99.90;;;;;;5087666;28;20469;-68
2021/10/17 04:02:05;;;;;;;30.43;27.43;;;1.40;99.90;;;;;;5085034;28;20469;-68
2021/10/17 04:04:32;;;;;;;31.30;28.17;;;1.40;99.90;;;;;;5094013;28;20477;-68
2021/10/17 04:06:59;;;;;;;32.30;29.30;;;1.40;99.90;;;;;;5096953;28;20466;-68
2021/10/17 04:09:26;;;;;;;33.13;29.50;;;1.40;99.90;;;;;;5096705;28;20465;-68
2021/10/17 04:11:54;;;;;;;30.83;27.83;;;1.40;99.90;;;;;;5094366;28;20465;-67
2021/10/17 04:14:21;;;;;;;29.77;27.27;;;1.30;99.90;;;;;;5091493;28;20464;-67
2021/10/17 04:16:49;;;;;;;32.53;29.40;;;1.20;99.90;;;;;;5084805;28;20487;-68
2021/10/17 04:19:15;;;;;;;32.57;27.57;;;1.20;99.90;;;;;;5087629;28;20549;-68
2021/10/17 04:21:43;;;;;;;31.60;28.50;;;1.20;99.90;;;;;;5087886;28;20462;-68
2021/10/17 04:24:10;;;;;;;34.00;30.63;;;1.30;99.90;;;;;;5096669;28;20497;-68
2021/10/17 04:26:37;;;;;;;32.00;28.70;;;1.40;99.90;;;;;;5097477;28;20472;-67
2021/10/17 04:29:05;;;;;;;32.63;28.93;;;1.40;99.90;;;;;;5097932;28;20521;-68
2021/10/17 04:31:32;;;;;;;35.23;29.97;;;1.40;99.90;;;;;;5085221;28;21156;-67
2021/10/17 04:33:59;;;;;;;29.83;27.07;;;1.40;99.90;;;;;;5089463;28;21009;-68
2021/10/17 04:36:26;;;;;;;31.40;27.83;;;1.30;99.90;;;;;;5090714;28;20473;-68
2021/10/17 04:38:53;;;;;;;32.27;28.93;;;1.20;99.90;;;;;;5090560;28;20492;-68
2021/10/17 04:41:21;;;;;;;37.03;28.80;;;1.20;99.90;;;;;;5092344;28;20487;-68
2021/10/17 04:43:48;;;;;;;31.70;28.43;;;1.20;99.90;;;;;;5095576;28;20469;-67
2021/10/17 04:46:17;;;;;;;35.23;28.70;;;1.30;99.90;;;;;;5089356;28;21005;-68
2021/10/17 04:48:44;;;;;;;32.90;27.80;;;1.40;99.90;;;;;;5095523;28;20460;-67
2021/10/17 04:51:11;;;;;;;46.47;29.23;;;1.40;99.90;;;;;;5080199;28;20471;-68
2021/10/17 04:53:37;;;;;;;30.77;28.07;;;1.40;99.90;;;;;;5088714;28;20491;-68
2021/10/17 04:56:04;;;;;;;28.97;26.23;;;1.30;99.90;;;;;;5086595;28;20509;-67
2021/10/17 04:58:32;;;;;;;41.10;27.27;;;1.30;99.90;;;;;;5085601;28;20496;-68
2021/10/17 05:00:59;;;;;;;31.87;28.60;;;1.20;99.90;;;;;;5092492;28;20464;-68
2021/10/17 05:03:28;;;;;;;38.33;26.17;;;1.20;99.90;;;;;;5096647;28;20475;-68
2021/10/17 05:05:55;;;;;;;29.57;27.07;;;1.20;99.90;;;;;;5090113;28;20487;-68
2021/10/17 05:08:21;;;;;;;36.07;29.30;;;1.30;99.90;;;;;;5097216;28;20468;-67
2021/10/17 05:10:49;;;;;;;34.70;28.37;;;1.20;99.90;;;;;;5082637;28;20464;-68
2021/10/17 05:13:16;;;;;;;30.33;26.70;;;1.20;99.90;;;;;;5095077;28;20461;-68
2021/10/17 05:15:44;;;;;;;45.07;26.43;;;1.20;99.90;;;;;;5086892;28;20462;-68
2021/10/17 05:18:11;;;;;;;35.93;28.83;;;1.20;99.90;;;;;;5095391;28;20490;-67
2021/10/17 05:20:40;;;;;;;31.10;28.53;;;1.30;99.90;;;;;;5091445;28;20761;-67
2021/10/17 05:23:07;;;;;;;31.10;28.23;;;1.40;99.90;;;;;;5094781;28;20493;-68
2021/10/17 05:25:37;;;;;;;30.33;27.37;;;1.60;99.90;;;;;;5097407;28;20460;-67
2021/10/17 05:28:04;;;;;;;32.70;27.50;;;1.60;99.90;;;;;;5091445;28;20469;-67
2021/10/17 05:30:32;;;;;;;31.53;27.20;;;1.60;99.90;;;;;;5085315;28;20981;-68
2021/10/17 05:33:01;;;;;;;35.23;28.20;;;1.50;99.90;;;;;;5083574;28;20963;-67
2021/10/17 05:35:28;;;;;;;30.43;27.17;;;1.50;99.90;;;;;;5093131;28;20472;-67
2021/10/17 05:37:56;;;;;;;29.80;27.00;;;1.50;99.90;;;;;;5093027;28;20493;-67
2021/10/17 05:40:23;;;;;;;31.47;28.10;;;1.50;99.90;;;;;;5076223;28;20466;-68
2021/10/17 05:42:50;;;;;;;33.20;29.67;;;1.50;99.90;;;;;;5084314;28;20490;-68
2021/10/17 05:45:17;;;;;;;30.80;28.17;;;1.70;99.90;;;;;;5099402;28;20469;-68
2021/10/17 05:47:43;;;;;;;32.80;28.00;;;1.80;99.90;;;;;;5089721;28;21060;-67
2021/10/17 05:50:11;;;;;;;30.43;27.50;;;1.80;99.90;;;;;;5086190;28;20967;-68
2021/10/17 05:52:38;;;;;;;29.53;26.80;;;1.80;99.90;;;;;;5085140;28;20488;-67
2021/10/17 05:55:07;;;;;;;30.17;27.17;;;1.70;99.90;;;;;;5092171;28;20487;-68
2021/10/17 05:57:36;;;;;;;30.30;27.27;;;1.60;99.90;;;;;;5098632;28;20491;-67
2021/10/17 06:00:05;;;;;;;30.57;27.37;;;1.60;99.90;;;;;;5091959;28;21027;-68
2021/10/17 06:02:32;;;;;;;28.70;25.90;;;1.60;99.90;;;;;;5089128;28;20468;-67
2021/10/17 06:04:59;;;;;;;29.30;26.80;;;1.60;99.90;;;;;;5093185;28;20462;-68
2021/10/17 06:07:25;;;;;;;42.53;26.33;;;1.60;99.90;;;;;;5087963;28;20564;-68
2021/10/17 06:09:52;;;;;;;34.23;30.13;;;1.60;99.90;;;;;;5086470;28;20453;-68
2021/10/17 06:12:21;;;;;;;32.20;28.50;;;1.70;99.90;;;;;;5090784;28;20829;-67
2021/10/17 06:14:48;;;;;;;31.87;27.67;;;1.70;99.90;;;;;;5084179;28;20465;-68
2021/10/17 06:17:15;;;;;;;31.33;28.23;;;1.70;99.90;;;;;;5083978;28;20463;-68
2021/10/17 06:19:42;;;;;;;32.97;29.60;;;1.80;99.90;;;;;;5091501;28;20458;-68
2021/10/17 06:22:09;;;;;;;31.30;28.20;;;1.90;99.90;;;;;;5100091;28;20969;-67
2021/10/17 06:24:36;;;;;;;31.13;27.70;;;2.00;99.90;;;;;;5092207;28;20464;-68
2021/10/17 06:27:03;;;;;;;31.70;27.30;;;2.00;99.90;;;;;;5090338;28;20461;-68
2021/10/17 06:29:31;;;;;;;29.63;26.80;;;2.10;99.90;;;;;;5092899;28;20454;-68
2021/10/17 06:31:58;;;;;;;33.77;28.57;;;2.30;99.90;;;;;;5092718;28;20571;-68
2021/10/17 06:34:26;;;;;;;32.10;28.77;;;2.40;99.90;;;;;;5093437;28;20464;-68
2021/10/17 06:36:53;;;;;;;40.13;28.80;;;2.60;99.90;;;;;;5094771;28;20491;-68
2021/10/17 06:39:20;;;;;;;40.87;29.27;;;2.70;99.90;;;;;;5093615;28;20497;-68
2021/10/17 06:41:47;;;;;;;37.47;29.50;;;2.90;99.90;;;;;;5092802;28;20462;-67
2021/10/17 06:44:13;;;;;;;33.00;29.30;;;3.00;99.90;;;;;;5100617;28;20517;-68
2021/10/17 06:46:42;;;;;;;36.50;30.20;;;3.20;99.90;;;;;;5084665;28;21049;-68
2021/10/17 06:49:09;;;;;;;39.20;28.47;;;3.40;99.90;;;;;;5088362;28;20564;-68
2021/10/17 06:51:36;;;;;;;33.30;29.30;;;3.50;99.90;;;;;;5090156;28;20458;-68
2021/10/17 06:54:03;;;;;;;44.37;28.57;;;3.70;99.90;;;;;;5099182;28;21002;-68
2021/10/17 06:56:30;;;;;;;36.00;26.90;;;3.80;99.90;;;;;;5091896;28;21011;-68
2021/10/17 06:58:56;;;;;;;36.27;29.67;;;4.00;99.90;;;;;;5093373;28;20516;-68
2021/10/17 07:01:23;;;;;;;64.53;29.03;;;4.20;99.90;;;;;;5084101;28;20466;-68
2021/10/17 07:03:51;;;;;;;39.47;27.10;;;4.40;99.90;;;;;;5093943;28;20465;-68
2021/10/17 07:06:18;;;;;;;32.30;27.40;;;4.60;99.90;;;;;;5090167;28;20774;-68
2021/10/17 07:08:45;;;;;;;35.70;27.23;;;4.80;99.90;;;;;;5085548;28;21118;-68
2021/10/17 07:11:12;;;;;;;31.93;27.53;;;5.00;99.90;;;;;;5078040;28;20471;-67
2021/10/17 07:13:39;;;;;;;40.53;29.00;;;5.10;99.90;;;;;;5093956;28;20465;-68
2021/10/17 07:16:06;;;;;;;50.97;31.77;;;5.20;99.90;;;;;;5086444;28;20466;-68
2021/10/17 07:18:33;;;;;;;44.87;32.07;;;5.20;99.90;;;;;;5086090;28;20478;-68
2021/10/17 07:21:02;;;;;;;41.43;30.47;;;5.20;99.90;;;;;;5078749;28;20462;-68
2021/10/17 07:23:29;;;;;;;39.23;27.40;;;5.20;99.90;;;;;;5079446;28;20487;-68
2021/10/17 07:25:56;;;;;;;35.67;26.83;;;5.20;99.90;;;;;;5088960;28;20541;-68
2021/10/17 07:28:23;;;;;;;32.87;27.07;;;5.10;99.90;;;;;;5080901;28;20759;-68
2021/10/17 07:30:50;;;;;;;39.20;28.00;;;5.10;99.90;;;;;;5091493;28;20833;-68
2021/10/17 07:33:17;;;;;;;32.40;28.90;;;5.10;99.90;;;;;;5094358;28;20492;-68
2021/10/17 07:35:44;;;;;;;50.07;32.20;;;5.20;99.90;;;;;;5091355;28;20510;-68
2021/10/17 07:38:13;;;;;;;38.57;28.87;;;5.30;99.90;;;;;;5085247;28;21020;-68
2021/10/17 07:40:41;;;;;;;38.10;28.00;;;5.40;99.90;;;;;;5094744;28;20453;-67
2021/10/17 07:43:08;;;;;;;34.90;28.60;;;5.50;99.90;;;;;;5086650;28;20918;-68
2021/10/17 07:45:35;;;;;;;32.50;29.13;;;5.50;99.90;;;;;;5085662;28;20459;-68
2021/10/17 07:48:02;;;;;;;37.10;28.10;;;5.60;99.90;;;;;;5090517;28;20468;-68
2021/10/17 07:50:29;;;;;;;39.17;31.10;;;5.70;99.90;;;;;;5092497;28;20854;-68
2021/10/17 07:52:56;;;;;;;50.43;34.27;;;5.90;99.90;;;;;;5091803;28;20542;-68
2021/10/17 07:55:25;;;;;;;43.30;29.90;;;6.00;99.90;;;;;;5088511;28;20463;-68
2021/10/17 07:57:53;;;;;;;51.63;31.40;;;6.10;99.90;;;;;;5093444;28;20469;-68
2021/10/17 08:00:23;;;;;;;43.30;28.20;;;6.20;99.90;;;;;;5082922;28;20464;-68
2021/10/17 08:02:51;;;;;;;49.00;34.17;;;6.40;99.90;;;;;;5087909;28;20458;-68
2021/10/17 08:05:18;;;;;;;43.17;34.67;;;6.60;99.90;;;;;;5093199;28;20458;-68
2021/10/17 08:07:45;;;;;;;42.00;31.83;;;6.70;99.90;;;;;;5093934;28;20462;-68
2021/10/17 08:10:14;;;;;;;47.10;32.37;;;6.80;99.90;;;;;;5101092;28;20952;-68
2021/10/17 08:12:42;;;;;;;53.83;29.70;;;6.90;99.90;;;;;;5091814;28;20473;-68
2021/10/17 08:15:11;;;;;;;35.00;28.63;;;7.20;99.90;;;;;;5082851;28;20459;-68
2021/10/17 08:17:38;;;;;;;44.70;27.77;;;7.50;99.90;;;;;;5089801;28;20993;-68
2021/10/17 08:20:07;;;;;;;41.90;30.23;;;7.60;99.90;;;;;;5089297;28;20485;-68
2021/10/17 08:22:35;;;;;;;42.87;28.37;;;7.80;99.90;;;;;;5086296;28;20482;-68
2021/10/17 08:25:02;;;;;;;33.57;30.23;;;7.80;99.90;;;;;;5086084;28;20879;-68
2021/10/17 08:27:29;;;;;;;38.80;27.20;;;7.80;99.90;;;;;;5082481;28;21305;-68
2021/10/17 08:29:57;;;;;;;36.90;27.47;;;8.00;99.90;;;;;;5084500;28;20511;-68
2021/10/17 08:32:24;;;;;;;37.47;28.73;;;8.20;99.90;;;;;;5087418;28;20998;-70
2021/10/17 08:34:51;;;;;;;28.87;25.63;;;8.50;99.90;;;;;;5085833;28;20568;-68
2021/10/17 08:37:18;;;;;;;44.73;30.33;;;8.70;99.90;;;;;;5091795;28;20464;-68
2021/10/17 08:39:45;;;;;;;32.53;27.43;;;8.90;99.90;;;;;;5096251;28;20518;-68
2021/10/17 08:42:12;;;;;;;33.20;26.87;;;9.00;99.90;;;;;;5088014;28;21004;-71
2021/10/17 08:44:41;;;;;;;37.90;25.90;;;9.00;99.90;;;;;;5095578;28;20467;-70
2021/10/17 08:47:10;;;;;;;34.43;27.07;;;9.20;99.90;;;;;;5091882;28;20909;-68
2021/10/17 08:49:37;;;;;;;38.33;30.70;;;9.50;99.90;;;;;;5086277;28;20480;-68
2021/10/17 08:52:09;;;;;;;29.13;24.80;;;9.70;99.90;;;;;;5096052;28;20468;-69
2021/10/17 08:54:38;;;;;;;36.10;24.87;;;9.70;99.90;;;;;;5090019;28;21135;-70
2021/10/17 08:57:06;;;;;;;29.33;26.20;;;9.70;99.90;;;;;;5093443;28;20493;-69
2021/10/17 08:59:35;;;;;;;28.07;25.37;;;10.00;99.90;;;;;;5094092;28;20491;-68
2021/10/17 09:02:14;;;;;;;28.23;25.20;;;10.10;99.90;;;;;;5092316;28;20468;-69
2021/10/17 09:04:41;;;;;;;28.20;24.90;;;10.50;99.90;;;;;;5098016;28;20745;-70
2021/10/17 09:07:20;;;;;;;26.97;24.20;;;10.90;99.90;;;;;;5087815;28;21104;-71
2021/10/17 09:10:10;;;;;;;25.13;22.87;;;10.90;99.90;;;;;;5091630;28;20515;-72
2021/10/17 09:12:39;;;;;;;38.63;24.73;;;11.20;99.90;;;;;;5084815;28;20460;-71
2021/10/17 09:15:24;;;;;;;27.17;24.20;;;11.20;99.90;;;;;;5091594;28;20465;-69
2021/10/17 09:18:05;;;;;;;33.00;25.30;;;11.20;99.90;;;;;;5094789;28;20464;-71
2021/10/17 09:20:33;;;;;;;41.77;24.57;;;11.50;99.90;;;;;;5095121;28;20450;-70
2021/10/17 09:23:00;;;;;;;29.40;24.57;;;11.60;99.90;;;;;;5086272;28;20493;-71
2021/10/17 09:25:33;;;;;;;27.80;23.47;;;11.70;99.90;;;;;;5087420;28;20550;-72
2021/10/17 09:28:01;;;;;;;25.23;22.80;;;11.70;99.90;;;;;;5088209;28;21058;-70
2021/10/17 09:30:28;;;;;;;32.10;24.00;;;11.70;99.90;;;;;;5082725;28;20469;-69
2021/10/17 09:33:14;;;;;;;23.77;21.40;;;11.80;99.90;;;;;;5087540;28;20465;-70
2021/10/17 09:35:41;;;;;;;24.47;22.00;;;12.00;99.90;;;;;;5088531;28;20894;-69
2021/10/17 09:38:09;;;;;;;28.10;22.23;;;12.20;99.90;;;;;;5086029;28;20504;-70
2021/10/17 09:40:38;;;;;;;25.03;22.60;;;12.30;99.90;;;;;;5085044;28;20473;-70
2021/10/17 09:43:08;;;;;;;26.67;22.90;;;12.50;99.90;;;;;;5086328;28;20677;-70
2021/10/17 09:45:36;;;;;;;23.63;21.10;;;12.50;99.90;;;;;;5082150;28;20791;-72
2021/10/17 09:48:04;;;;;;;23.63;21.60;;;12.60;99.90;;;;;;5087709;28;20454;-70
2021/10/17 09:50:32;;;;;;;24.27;21.90;;;12.70;99.90;;;;;;5086150;28;20542;-70
2021/10/17 09:53:03;;;;;;;23.03;21.23;;;12.90;99.90;;;;;;5084182;28;20486;-70
2021/10/17 09:55:30;;;;;;;21.20;19.23;;;13.00;99.90;;;;;;5091449;28;21060;-70
2021/10/17 09:57:58;;;;;;;19.70;17.90;;;13.30;99.90;;;;;;5097170;28;20473;-72
2021/10/17 10:00:26;;;;;;;22.63;19.87;;;13.30;99.90;;;;;;5099051;28;20490;-70
2021/10/17 10:02:54;;;;;;;21.07;19.23;;;13.50;99.90;;;;;;5090126;28;20987;-69
2021/10/17 10:05:24;;;;;;;20.37;18.43;;;13.80;99.90;;;;;;5090817;28;20464;-69
2021/10/17 10:07:58;;;;;;;18.50;16.70;;;14.30;99.90;;;;;;5086585;28;20791;-71
2021/10/17 10:10:27;;;;;;;22.53;20.50;;;14.60;99.90;;;;;;5098106;28;20468;-72
2021/10/17 10:12:57;;;;;;;20.07;18.50;;;15.00;99.90;;;;;;5086764;28;20454;-69
2021/10/17 10:15:25;;;;;;;20.30;18.50;;;15.20;99.90;;;;;;5085544;28;20510;-69
2021/10/17 10:17:55;;;;;;;20.77;19.10;;;15.40;99.90;;;;;;5092403;28;20538;-69
2021/10/17 10:20:22;;;;;;;21.23;19.10;;;15.70;99.90;;;;;;5094118;28;20846;-69
2021/10/17 10:22:52;;;;;;;22.30;19.30;;;15.70;99.90;;;;;;5091100;28;20488;-70
2021/10/17 10:25:20;;;;;;;21.20;18.77;;;15.80;99.90;;;;;;5097193;28;20462;-69
2021/10/17 10:27:48;;;;;;;19.40;17.80;;;15.70;99.90;;;;;;5097555;28;20840;-69
2021/10/17 10:30:25;;;;;;;20.67;18.67;;;15.80;99.90;;;;;;5092583;28;20523;-69
2021/10/17 10:33:12;;;;;;;21.47;19.77;;;16.00;99.90;;;;;;5087387;28;20988;-69
2021/10/17 10:36:04;;;;;;;21.37;19.33;;;15.70;99.90;;;;;;5093884;28;20485;-69
2021/10/17 10:39:14;;;;;;;20.23;18.10;;;15.80;99.90;;;;;;5089114;28;20888;-69
2021/10/17 10:41:48;;;;;;;20.30;18.20;;;15.90;99.90;;;;;;5092045;28;21206;-69
2021/10/17 10:44:16;;;;;;;22.13;17.90;;;16.20;99.90;;;;;;5099713;28;20973;-70
2021/10/17 10:46:44;;;;;;;28.13;17.70;;;16.30;99.90;;;;;;5086394;28;20465;-69
2021/10/17 10:49:14;;;;;;;20.23;18.27;;;16.30;99.90;;;;;;5093130;28;20480;-69
2021/10/17 10:51:46;;;;;;;24.07;17.70;;;16.50;99.90;;;;;;5092822;28;20850;-70
2021/10/17 10:54:32;;;;;;;19.77;17.73;;;17.00;99.90;;;;;;5090700;28;20495;-70
2021/10/17 10:57:00;;;;;;;18.97;17.13;;;17.10;99.90;;;;;;5092256;28;20459;-72
2021/10/17 10:59:43;;;;;;;20.03;17.93;;;17.20;99.90;;;;;;5093047;28;21759;-70
2021/10/17 11:02:14;;;;;;;21.63;17.73;;;17.10;99.90;;;;;;5089407;28;20821;-70
2021/10/17 11:04:59;;;;;;;21.00;17.97;;;17.10;99.90;;;;;;5094833;28;20458;-70
2021/10/17 11:07:41;;;;;;;19.23;17.83;;;17.10;99.90;;;;;;5098261;28;20977;-72
2021/10/17 11:10:37;;;;;;;19.70;17.90;;;17.20;99.90;;;;;;5092037;28;20481;-71
2021/10/17 11:13:07;;;;;;;19.13;17.40;;;17.60;99.90;;;;;;5092603;28;20520;-72
2021/10/17 11:15:36;;;;;;;18.73;17.20;;;17.90;99.90;;;;;;5091721;28;20459;-70
2021/10/17 11:18:05;;;;;;;19.00;17.20;;;18.20;99.90;;;;;;5092469;28;20473;-70
2021/10/17 11:20:34;;;;;;;18.93;17.30;;;18.40;99.90;;;;;;5092549;28;20961;-73
2021/10/17 11:23:03;;;;;;;20.30;18.53;;;18.70;99.90;;;;;;5095271;28;20478;-70
2021/10/17 11:25:31;;;;;;;19.80;18.10;;;19.00;99.90;;;;;;5084197;28;20556;-71
2021/10/17 11:27:58;;;;;;;18.03;16.83;;;19.10;99.90;;;;;;5092199;28;20458;-70
2021/10/17 11:30:28;;;;;;;68.83;62.60;;;19.10;99.90;;;;;;5086538;28;20980;-73
2021/10/17 11:32:56;;;;;;;148.37;112.60;;;18.90;99.90;;;;;;5087641;28;20484;-70
2021/10/17 11:35:28;;;;;;;36.93;29.77;;;19.00;99.90;;;;;;5092541;28;20466;-73
2021/10/17 11:37:56;;;;;;;79.20;52.90;;;19.00;99.90;;;;;;5092018;28;20464;-70
2021/10/17 11:40:23;;;;;;;65.63;59.63;;;18.40;99.90;;;;;;5099595;28;20489;-70
2021/10/17 11:42:52;;;;;;;17.80;16.63;;;18.60;99.90;;;;;;5088253;28;20524;-73
2021/10/17 11:45:21;;;;;;;18.60;17.10;;;18.70;99.90;;;;;;5091608;28;20465;-71
2021/10/17 11:47:51;;;;;;;18.57;17.37;;;19.20;99.90;;;;;;5091068;28;20948;-73
2021/10/17 11:50:23;;;;;;;18.07;16.47;;;18.70;99.90;;;;;;5083257;28;20603;-69
2021/10/17 11:52:55;;;;;;;18.27;17.13;;;18.90;99.90;;;;;;5086742;28;20485;-69
2021/10/17 11:55:34;;;;;;;18.50;16.77;;;19.30;99.90;;;;;;5086922;28;20894;-73
2021/10/17 11:58:02;;;;;;;18.57;17.27;;;19.50;99.90;;;;;;5090641;28;20487;-69
2021/10/17 12:00:32;;;;;;;37.63;33.90;;;19.50;99.90;;;;;;5087034;28;20493;-70
2021/10/17 12:03:00;;;;;;;48.43;43.40;;;18.80;99.90;;;;;;5086737;28;20466;-69
2021/10/17 12:05:28;;;;;;;52.37;47.07;;;18.80;99.90;;;;;;5084340;28;20457;-70
2021/10/17 12:07:58;;;;;;;25.30;23.20;;;18.70;99.90;;;;;;5088879;28;20488;-70
2021/10/17 12:10:27;;;;;;;62.90;56.33;;;19.00;99.90;;;;;;5089239;28;20467;-70
2021/10/17 12:12:59;;;;;;;35.47;32.40;;;19.50;99.90;;;;;;5085114;28;20457;-70
2021/10/17 12:15:27;;;;;;;40.93;37.20;;;19.40;99.90;;;;;;5087510;28;21013;-70
2021/10/17 12:18:05;;;;;;;16.63;15.53;;;19.10;99.90;;;;;;5088855;28;20469;-72
2021/10/17 12:20:33;;;;;;;16.53;15.53;;;19.00;99.70;;;;;;5082763;28;20603;-69
2021/10/17 12:23:01;;;;;;;18.70;17.50;;;18.70;99.90;;;;;;5083914;28;20487;-73
2021/10/17 12:25:28;;;;;;;17.10;15.70;;;18.60;98.40;;;;;;5095273;28;20472;-69
2021/10/17 12:27:55;;;;;;;18.23;17.03;;;18.70;98.50;;;;;;5090263;28;20485;-69
2021/10/17 12:30:28;;;;;;;16.27;15.37;;;19.10;97.60;;;;;;5083140;28;20473;-69
2021/10/17 12:32:57;;;;;;;16.83;15.50;;;18.50;98.00;;;;;;5086473;28;20513;-69
2021/10/17 12:35:30;;;;;;;17.47;16.07;;;17.90;98.80;;;;;;5080445;28;20468;-69
2021/10/17 12:38:04;;;;;;;17.57;16.37;;;18.50;99.00;;;;;;5091768;28;20458;-70
2021/10/17 12:40:32;;;;;;;16.30;15.30;;;18.60;98.20;;;;;;5086402;28;20500;-69